Airfield :
LOGIN :

Register | Disclaimer

   EN    FR    IT 

 










Legend :    VFR   Marginal VFR   IFR   Intensive IFR   Very Intensive IFR
Visi :
Ceiling :
>= 8 km
>= 3000ft
5 to 8 km
1000 to 3000 ft
1500m to 5 km
500 to 1000 ft
800 to 1500m
200 to 500 ft
< 800m
< 200 ft
Symbols :   Thunderstorms  Fog  Heavy snow  Heavy precipitations  Wind > 20 kt
SIGMETs :     Misc.  Thunderstorms  Icing  Turbulence  Mountain Waves  Volcanic Ashes






- Airport Elevation : 13 ft
- IATA code : OST


EBOS - Oostend bruges Int.

CURRENT METAR :
  • 172020Z 16010KT 9999 FEW030 12/10 Q1007 NOSIG

EXPIRED METARs :
  • 171950Z 16009KT 9999 FEW030 BKN038 13/10 Q1007 NOSIG
  • 171920Z 17006KT 9999 FEW030 13/10 Q1007 TEMPO 4500 SHRA
  • 171850Z 17008KT 9999 FEW030 13/10 Q1007 TEMPO 4500 SHRA
  • 171820Z 16007KT 9999 FEW030 12/10 Q1008 TEMPO 4500 SHRA
  • 171750Z 17005KT 9999 FEW030 12/09 Q1008 TEMPO 4500 SHRA

TAF TAF EBOS
Valid from the 17 at 18:00 until the 19 at 00:00 UTC


171700Z 1718/1824 19012KT 9999 FEW020TCU SCT030
TEMPO 1719/1821 19015G25KT 4500 SHRA
PROB30
TEMPO 1804/1818 20020G35KT 2000 TSRA



MET'MAP, your aeronautical weather chart ! - Copyright ORBIFLY December 2007 - Disclaimer

ORBIFLY MET'MAP TEAM :

Programming & Development : Alexandra Zaïnal
Concept & Development : Baudouin d'Aumeries
Co-Development & Prog : Marc-Olivier Méhu
Technical & hardware support : Manuel Goepfert

Contact : metmap@orbifly.com




SOURCES & CREDITS :

   NOAA